createdAt,value
2022-11-26T00:01:45.759Z,11.27
2022-11-26T00:04:13.747Z,21.35
2022-11-26T00:06:44.702Z,33.95
2022-11-26T00:09:19.112Z,17.42
2022-11-26T00:11:47.131Z,12.63
2022-11-26T00:14:16.280Z,12.38
2022-11-26T00:16:44.601Z,14.98
2022-11-26T00:19:12.666Z,14.95
2022-11-26T00:21:42.330Z,13.90
2022-11-26T00:24:28.087Z,15.77
2022-11-26T00:26:58.047Z,18.70
2022-11-26T00:29:26.008Z,17.45
2022-11-26T00:31:53.932Z,15.57
2022-11-26T00:34:21.946Z,12.25
2022-11-26T00:36:49.817Z,14.13
2022-11-26T00:39:21.979Z,15.02
2022-11-26T00:41:51.809Z,10.43
2022-11-26T00:44:22.794Z,11.68
2022-11-26T00:46:51.559Z,12.23
2022-11-26T00:49:20.725Z,13.57
2022-11-26T00:51:49.019Z,14.88
2022-11-26T00:54:18.711Z,18.38
2022-11-26T00:56:48.235Z,15.98
2022-11-26T00:59:19.883Z,21.77
2022-11-26T01:01:48.095Z,13.27
2022-11-26T01:04:16.052Z,17.60
2022-11-26T01:06:44.930Z,17.80
2022-11-26T01:09:22.192Z,13.15
2022-11-26T01:11:53.981Z,16.73
2022-11-26T01:14:24.693Z,23.10
2022-11-26T01:16:55.455Z,19.73
2022-11-26T01:19:23.593Z,19.52
2022-11-26T01:21:51.434Z,18.85
2022-11-26T01:24:19.315Z,15.23
2022-11-26T01:26:47.218Z,16.50
2022-11-26T01:29:20.074Z,22.17
2022-11-26T01:31:48.543Z,19.10
2022-11-26T01:34:16.426Z,15.57
2022-11-26T01:36:44.531Z,21.05
2022-11-26T01:39:21.950Z,14.45
2022-11-26T01:41:57.445Z,21.80
2022-11-26T01:44:29.001Z,17.77
2022-11-26T01:46:57.632Z,17.13
2022-11-26T01:49:28.114Z,19.83
2022-11-26T01:52:24.914Z,19.70
2022-11-26T01:54:53.369Z,19.63
2022-11-26T01:57:30.371Z,22.08
2022-11-26T02:00:01.432Z,14.25
2022-11-26T02:02:30.382Z,17.33
2022-11-26T02:05:20.929Z,21.98
2022-11-26T02:07:49.068Z,21.88
2022-11-26T02:10:17.089Z,16.00
2022-11-26T02:12:45.260Z,16.17
2022-11-26T02:15:13.513Z,16.08
2022-11-26T02:17:52.026Z,13.57
2022-11-26T02:20:52.517Z,21.83
2022-11-26T02:24:12.386Z,21.67
2022-11-26T02:27:19.757Z,26.27
2022-11-26T02:30:12.255Z,11.23
2022-11-26T02:33:01.893Z,15.43
2022-11-26T02:35:55.997Z,18.15
2022-11-26T02:38:28.669Z,14.65
2022-11-26T02:40:56.835Z,22.45
2022-11-26T02:43:26.024Z,22.10
2022-11-26T02:45:59.448Z,21.35
2022-11-26T02:48:32.543Z,15.68
2022-11-26T02:51:08.147Z,17.10
2022-11-26T02:53:36.708Z,20.42
2022-11-26T02:56:11.158Z,17.38
2022-11-26T02:58:39.633Z,13.88
2022-11-26T03:01:12.827Z,21.98
2022-11-26T03:03:49.326Z,14.93
2022-11-26T03:06:18.983Z,16.35
2022-11-26T03:08:46.997Z,20.02
2022-11-26T03:11:14.947Z,19.63
2022-11-26T03:13:42.832Z,16.42
2022-11-26T03:16:10.820Z,18.38
2022-11-26T03:18:38.681Z,15.25
2022-11-26T03:21:06.750Z,16.08
2022-11-26T03:23:34.694Z,14.32
2022-11-26T03:26:02.599Z,18.27
2022-11-26T03:28:30.471Z,14.07
2022-11-26T03:30:58.353Z,14.32
2022-11-26T03:33:26.238Z,23.15
2022-11-26T03:35:54.071Z,14.65
2022-11-26T03:38:22.072Z,19.98
2022-11-26T03:41:00.668Z,14.75
2022-11-26T03:43:29.022Z,17.02
2022-11-26T03:45:57.062Z,14.57
2022-11-26T03:48:25.001Z,23.05
2022-11-26T03:50:52.838Z,9.23
2022-11-26T03:53:20.711Z,18.30
2022-11-26T03:55:48.689Z,16.73
2022-11-26T03:58:16.565Z,15.50
2022-11-26T04:00:44.559Z,18.90
2022-11-26T04:03:12.684Z,14.50
2022-11-26T04:05:40.665Z,19.05
2022-11-26T04:08:08.651Z,18.27
2022-11-26T04:10:36.554Z,13.10
2022-11-26T04:13:04.433Z,16.20
2022-11-26T04:15:32.605Z,17.30
2022-11-26T04:18:00.501Z,14.73
2022-11-26T04:20:28.792Z,17.65
2022-11-26T04:22:56.720Z,22.58
2022-11-26T04:25:24.620Z,13.75
2022-11-26T04:27:53.130Z,20.48
2022-11-26T04:30:21.218Z,20.63
2022-11-26T04:32:49.112Z,16.80
2022-11-26T04:35:17.143Z,22.52
2022-11-26T04:37:44.998Z,14.48
2022-11-26T04:40:13.249Z,17.20
2022-11-26T04:42:41.090Z,14.35
2022-11-26T04:45:10.141Z,20.77
2022-11-26T04:47:42.633Z,14.13
2022-11-26T04:50:11.957Z,17.90
2022-11-26T04:52:40.026Z,16.65
2022-11-26T04:55:08.210Z,15.50
2022-11-26T04:57:36.068Z,26.00
2022-11-26T05:00:06.183Z,20.63
2022-11-26T05:02:34.267Z,21.27
2022-11-26T05:05:02.224Z,16.30
2022-11-26T05:07:30.176Z,20.33
2022-11-26T05:09:58.141Z,17.85
2022-11-26T05:12:26.071Z,17.52
2022-11-26T05:14:53.901Z,15.70
2022-11-26T05:17:21.830Z,15.27
2022-11-26T05:19:49.682Z,15.48
2022-11-26T05:22:17.776Z,17.33
2022-11-26T05:24:45.673Z,23.48
2022-11-26T05:27:13.654Z,21.95
2022-11-26T05:29:41.532Z,16.75
2022-11-26T05:32:09.433Z,11.90
2022-11-26T05:34:37.619Z,15.98
2022-11-26T05:37:05.727Z,13.10
2022-11-26T05:39:33.560Z,17.92
2022-11-26T05:42:06.214Z,16.15
2022-11-26T05:44:37.809Z,18.85
2022-11-26T05:47:06.093Z,16.13
2022-11-26T05:49:33.980Z,17.20
2022-11-26T05:52:01.855Z,14.98
2022-11-26T05:54:29.756Z,13.88
2022-11-26T05:57:00.285Z,13.98
2022-11-26T05:59:29.151Z,16.58
2022-11-26T06:01:57.413Z,25.67
2022-11-26T06:04:25.483Z,20.42
2022-11-26T06:06:53.316Z,16.25
2022-11-26T06:09:22.294Z,19.77
2022-11-26T06:11:50.933Z,17.75
2022-11-26T06:14:18.863Z,12.82
2022-11-26T06:16:46.901Z,20.60
2022-11-26T06:19:14.966Z,15.35
2022-11-26T06:21:43.410Z,12.02
2022-11-26T06:24:11.668Z,20.08
2022-11-26T06:26:39.654Z,16.33
2022-11-26T06:29:07.520Z,19.77
2022-11-26T06:31:35.482Z,16.38
2022-11-26T06:34:03.457Z,19.17
2022-11-26T06:36:31.299Z,14.23
2022-11-26T06:38:59.174Z,18.15
2022-11-26T06:41:27.086Z,19.48
2022-11-26T06:43:54.920Z,16.40
2022-11-26T06:46:22.888Z,14.27
2022-11-26T06:48:50.777Z,14.32
2022-11-26T06:51:21.974Z,17.02
2022-11-26T06:53:49.895Z,16.58
2022-11-26T06:56:19.020Z,15.75
2022-11-26T06:58:48.296Z,18.05
2022-11-26T07:01:20.450Z,15.93
2022-11-26T07:03:48.724Z,19.40
2022-11-26T07:06:29.026Z,16.23
2022-11-26T07:08:59.093Z,21.33
2022-11-26T07:11:27.576Z,20.17
2022-11-26T07:13:55.555Z,25.02
2022-11-26T07:16:23.720Z,16.42
2022-11-26T07:18:57.895Z,26.15
2022-11-26T07:21:29.546Z,16.98
2022-11-26T07:23:59.281Z,23.85
2022-11-26T07:26:27.296Z,26.23
2022-11-26T07:28:55.203Z,15.48
2022-11-26T07:31:24.171Z,14.55
2022-11-26T07:33:52.521Z,15.85
2022-11-26T07:36:26.739Z,18.33
2022-11-26T07:38:59.913Z,19.05
2022-11-26T07:41:30.203Z,19.52
2022-11-26T07:43:58.255Z,16.10
2022-11-26T07:46:26.857Z,19.83
2022-11-26T07:48:58.103Z,17.35
2022-11-26T07:51:29.499Z,16.33
2022-11-26T07:54:00.105Z,18.38
2022-11-26T07:56:28.105Z,18.05
2022-11-26T07:58:56.006Z,20.88
2022-11-26T08:01:29.749Z,21.17
2022-11-26T08:03:59.663Z,15.43
2022-11-26T08:06:29.728Z,22.33
2022-11-26T08:09:00.411Z,20.13
2022-11-26T08:11:31.457Z,15.30
2022-11-26T08:14:05.096Z,17.20
2022-11-26T08:16:33.516Z,21.58
2022-11-26T08:19:10.997Z,24.10
2022-11-26T08:21:39.611Z,17.83
2022-11-26T08:24:10.701Z,19.60
2022-11-26T08:26:43.873Z,21.70
2022-11-26T08:29:13.218Z,19.23
2022-11-26T08:31:45.776Z,18.65
2022-11-26T08:34:16.219Z,20.60
2022-11-26T08:36:45.541Z,15.48
2022-11-26T08:39:18.287Z,20.48
2022-11-26T08:41:52.169Z,19.20
2022-11-26T08:44:21.543Z,20.50
2022-11-26T08:46:49.702Z,16.10
2022-11-26T08:49:17.718Z,27.10
2022-11-26T08:51:45.687Z,25.10
2022-11-26T08:54:13.671Z,23.98
2022-11-26T08:56:41.581Z,18.05
2022-11-26T08:59:09.479Z,18.60
2022-11-26T09:01:37.675Z,19.40
2022-11-26T09:04:05.802Z,22.63
2022-11-26T09:06:38.218Z,19.08
2022-11-26T09:09:13.416Z,22.10
2022-11-26T09:11:48.790Z,16.05
2022-11-26T09:14:20.829Z,25.52
2022-11-26T09:16:48.984Z,19.58
2022-11-26T09:19:17.576Z,21.23
2022-11-26T09:21:46.210Z,20.20
2022-11-26T09:24:14.448Z,27.33
2022-11-26T09:26:42.417Z,17.45
2022-11-26T09:29:19.284Z,17.40
2022-11-26T09:32:21.979Z,18.25
2022-11-26T09:34:37.075Z,17.95
2022-11-26T09:37:05.177Z,23.33
2022-11-26T09:39:33.178Z,18.35
2022-11-26T09:42:16.603Z,19.13
2022-11-26T09:45:16.538Z,18.67
2022-11-26T09:47:47.937Z,17.45
2022-11-26T09:53:36.695Z,19.10
2022-11-26T09:56:04.937Z,18.13
2022-11-26T09:58:58.011Z,23.05
2022-11-26T10:01:26.074Z,27.55
2022-11-26T10:03:54.089Z,25.52
2022-11-26T10:06:21.854Z,26.30
2022-11-26T10:09:04.909Z,24.48
2022-11-26T10:12:00.387Z,27.80
2022-11-26T10:15:03.873Z,23.63
2022-11-26T10:18:02.256Z,25.10
2022-11-26T10:20:43.403Z,27.20
2022-11-26T10:23:17.389Z,26.02
2022-11-26T10:25:48.797Z,26.85
2022-11-26T10:28:28.278Z,27.80
2022-11-26T10:31:04.558Z,32.63
2022-11-26T10:34:02.070Z,27.55
2022-11-26T10:36:39.989Z,26.55
2022-11-26T10:39:12.384Z,31.30
2022-11-26T10:41:40.355Z,25.95
2022-11-26T10:44:42.683Z,30.92
2022-11-26T10:47:26.913Z,27.90
2022-11-26T10:50:32.173Z,23.90
2022-11-26T10:53:06.558Z,37.35
2022-11-26T10:55:43.465Z,32.47
2022-11-26T10:58:23.223Z,28.17
2022-11-26T11:00:51.258Z,31.70
2022-11-26T11:04:06.909Z,26.17
2022-11-26T11:06:19.561Z,32.08
2022-11-26T11:08:48.990Z,31.88
2022-11-26T11:11:21.632Z,20.88
2022-11-26T11:13:49.958Z,25.45
2022-11-26T11:16:27.544Z,23.55
2022-11-26T11:19:04.098Z,27.23
2022-11-26T11:21:37.234Z,22.92
2022-11-26T11:24:15.523Z,28.20
2022-11-26T11:26:50.667Z,28.52
2022-11-26T11:29:35.126Z,29.35
2022-11-26T11:32:06.494Z,22.08
2022-11-26T11:34:38.887Z,24.65
2022-11-26T11:37:19.081Z,35.17
2022-11-26T11:39:47.679Z,36.22
2022-11-26T11:42:28.180Z,31.73
2022-11-26T11:44:58.153Z,25.67
2022-11-26T11:47:28.886Z,27.08
2022-11-26T11:50:42.498Z,32.42
2022-11-26T11:53:21.130Z,30.15
2022-11-26T11:56:34.557Z,29.80
2022-11-26T11:59:11.382Z,31.52
2022-11-26T12:01:50.949Z,26.73
2022-11-26T12:04:58.909Z,33.47
2022-11-26T12:07:46.596Z,24.48
2022-11-26T12:10:31.007Z,25.35
2022-11-26T12:13:05.200Z,25.23
2022-11-26T12:15:44.049Z,29.45
2022-11-26T12:18:31.528Z,19.27
2022-11-26T12:21:39.505Z,21.65
2022-11-26T12:24:39.736Z,26.40
2022-11-26T12:27:30.563Z,26.52
2022-11-26T12:30:08.625Z,24.25
2022-11-26T12:32:59.604Z,25.02
2022-11-26T12:35:36.654Z,23.63
2022-11-26T12:38:40.840Z,29.20
2022-11-26T12:41:21.714Z,22.55
2022-11-26T12:43:52.801Z,22.63
2022-11-26T12:46:45.086Z,26.42
2022-11-26T12:49:31.853Z,25.23
2022-11-26T12:52:25.087Z,26.80
2022-11-26T12:55:21.414Z,22.02
2022-11-26T12:58:18.073Z,21.88
2022-11-26T13:00:47.142Z,22.13
2022-11-26T13:03:28.755Z,23.08
2022-11-26T13:06:22.958Z,19.88
2022-11-26T13:09:21.902Z,24.73
2022-11-26T13:12:18.463Z,18.23
2022-11-26T13:15:16.397Z,18.23
2022-11-26T13:17:46.872Z,19.95
2022-11-26T13:21:03.620Z,19.23
2022-11-26T13:23:54.827Z,25.73
2022-11-26T13:26:54.372Z,22.05
2022-11-26T13:29:40.687Z,17.80
2022-11-26T13:32:25.997Z,21.95
2022-11-26T13:35:40.512Z,17.67
2022-11-26T13:38:41.211Z,23.70
2022-11-26T13:41:14.590Z,21.27
2022-11-26T13:44:00.744Z,18.33
2022-11-26T13:46:36.604Z,22.13
2022-11-26T13:49:32.002Z,21.30
2022-11-26T13:52:17.322Z,18.75
2022-11-26T13:54:56.743Z,10.73
2022-11-26T13:57:31.556Z,12.85
2022-11-26T13:59:59.806Z,14.77
2022-11-26T14:02:33.824Z,18.40
2022-11-26T14:05:05.384Z,20.60
2022-11-26T14:07:33.564Z,24.25
2022-11-26T14:10:04.155Z,22.05
2022-11-26T14:13:07.933Z,23.90
2022-11-26T14:15:42.073Z,15.10
2022-11-26T14:18:17.696Z,18.27
2022-11-26T14:21:12.568Z,14.32
2022-11-26T14:23:58.947Z,15.80
2022-11-26T14:26:37.225Z,23.25
2022-11-26T14:29:13.427Z,23.63
2022-11-26T14:31:51.102Z,22.63
2022-11-26T14:34:38.666Z,14.57
2022-11-26T14:37:16.517Z,29.25
2022-11-26T14:39:45.718Z,24.85
2022-11-26T14:42:18.214Z,26.98
2022-11-26T14:44:46.310Z,15.07
2022-11-26T14:47:20.505Z,18.48
2022-11-26T14:49:58.186Z,16.23
2022-11-26T14:52:33.403Z,18.40
2022-11-26T14:55:06.548Z,22.15
2022-11-26T14:57:49.465Z,22.25
2022-11-26T15:00:17.418Z,11.45
2022-11-26T15:02:45.916Z,14.68
2022-11-26T15:05:29.074Z,16.42
2022-11-26T15:08:05.537Z,12.25
2022-11-26T15:11:00.617Z,12.02
2022-11-26T15:13:44.925Z,15.55
2022-11-26T15:16:32.696Z,12.93
2022-11-26T15:19:03.598Z,14.73
2022-11-26T15:21:31.722Z,13.90
2022-11-26T15:24:02.578Z,17.85
2022-11-26T15:26:34.876Z,14.45
2022-11-26T15:29:33.909Z,15.68
2022-11-26T15:32:02.352Z,11.02
2022-11-26T15:34:32.221Z,12.38
2022-11-26T15:37:01.182Z,10.10
2022-11-26T15:39:31.306Z,16.55
2022-11-26T15:42:05.883Z,10.60
2022-11-26T15:44:42.344Z,21.73
2022-11-26T15:47:20.080Z,12.13
2022-11-26T15:49:52.731Z,17.42
2022-11-26T15:52:26.140Z,11.70
2022-11-26T15:55:22.584Z,8.60
2022-11-26T15:57:52.380Z,20.92
2022-11-26T16:00:40.783Z,16.92
2022-11-26T16:03:45.376Z,18.58
2022-11-26T16:06:42.762Z,15.90
2022-11-26T16:09:13.642Z,14.10
2022-11-26T16:12:02.106Z,10.75
2022-11-26T16:14:39.154Z,11.00
2022-11-26T16:17:11.717Z,12.77
2022-11-26T16:19:51.945Z,9.60
2022-11-26T16:22:25.529Z,10.05
2022-11-26T16:25:16.611Z,14.32
2022-11-26T16:28:10.326Z,7.25
2022-11-26T16:30:41.282Z,12.98
2022-11-26T16:33:09.318Z,9.25
2022-11-26T16:35:46.510Z,8.55
2022-11-26T16:38:37.478Z,15.35
2022-11-26T16:41:05.597Z,5.72
2022-11-26T16:43:33.393Z,12.18
2022-11-26T16:46:01.334Z,15.90
2022-11-26T16:48:29.392Z,20.42
2022-11-26T16:51:21.952Z,12.93
2022-11-26T16:53:49.966Z,8.13
2022-11-26T16:56:27.249Z,16.15
2022-11-26T16:58:58.579Z,5.28
2022-11-26T17:01:27.015Z,9.23
2022-11-26T17:03:55.006Z,11.93
2022-11-26T17:06:33.950Z,13.25
2022-11-26T17:09:02.372Z,10.65
2022-11-26T17:11:30.241Z,16.15
2022-11-26T17:13:58.056Z,17.95
2022-11-26T17:16:26.173Z,15.85
2022-11-26T17:18:54.361Z,9.32
2022-11-26T17:21:22.242Z,8.00
2022-11-26T17:23:50.088Z,8.48
2022-11-26T17:26:23.594Z,7.55
2022-11-26T17:28:51.560Z,12.05
2022-11-26T17:31:19.606Z,14.30
2022-11-26T17:33:47.536Z,10.82
2022-11-26T17:36:21.155Z,10.18
2022-11-26T17:38:49.366Z,9.63
2022-11-26T17:41:17.416Z,18.92
2022-11-26T17:43:45.350Z,11.27
2022-11-26T17:46:19.593Z,7.20
2022-11-26T17:48:48.663Z,11.98
2022-11-26T17:51:16.641Z,11.00
2022-11-26T17:53:45.019Z,12.05
2022-11-26T17:56:20.409Z,17.15
2022-11-26T17:58:48.666Z,20.65
2022-11-26T18:01:17.475Z,14.93
2022-11-26T18:03:46.044Z,10.68
2022-11-26T18:06:19.723Z,9.55
2022-11-26T18:08:47.721Z,11.38
2022-11-26T18:11:16.581Z,15.80
2022-11-26T18:13:45.169Z,13.90
2022-11-26T18:16:13.410Z,11.10
2022-11-26T18:18:41.332Z,10.38
2022-11-26T18:21:09.161Z,11.35
2022-11-26T18:23:36.979Z,10.25
2022-11-26T18:26:04.872Z,12.25
2022-11-26T18:28:33.089Z,10.63
2022-11-26T18:31:01.075Z,21.52
2022-11-26T18:33:28.935Z,25.60
2022-11-26T18:35:56.852Z,27.05
2022-11-26T18:38:28.872Z,8.80
2022-11-26T18:41:03.417Z,10.40
2022-11-26T18:43:33.294Z,12.38
2022-11-26T18:46:07.028Z,7.97
2022-11-26T18:48:36.121Z,13.07
2022-11-26T18:51:05.188Z,9.50
2022-11-26T18:53:33.678Z,11.73
2022-11-26T18:56:06.815Z,8.45
2022-11-26T18:58:34.779Z,7.03
2022-11-26T19:01:03.179Z,8.50
2022-11-26T19:03:31.052Z,7.97
2022-11-26T19:05:59.102Z,11.35
2022-11-26T19:08:26.938Z,9.57
2022-11-26T19:10:55.336Z,12.20
2022-11-26T19:13:23.333Z,9.57
2022-11-26T19:15:51.198Z,14.23
2022-11-26T19:18:19.078Z,8.40
2022-11-26T19:20:52.958Z,9.15
2022-11-26T19:23:24.289Z,6.13
2022-11-26T19:25:52.417Z,8.32
2022-11-26T19:28:20.387Z,12.35
2022-11-26T19:31:11.002Z,11.98
2022-11-26T19:33:39.930Z,10.23
2022-11-26T19:36:11.629Z,8.77
2022-11-26T19:38:39.989Z,6.63
2022-11-26T19:41:07.884Z,8.00
2022-11-26T19:43:38.871Z,12.60
2022-11-26T19:46:15.172Z,9.90
2022-11-26T19:48:45.907Z,8.35
2022-11-26T19:51:15.661Z,5.88
2022-11-26T19:53:43.917Z,10.15
2022-11-26T19:56:19.671Z,10.15
2022-11-26T19:58:48.010Z,9.23
2022-11-26T20:01:17.346Z,13.27
2022-11-26T20:03:45.406Z,10.20
2022-11-26T20:06:23.419Z,15.20
2022-11-26T20:08:51.726Z,10.32
2022-11-26T20:11:20.198Z,7.43
2022-11-26T20:13:49.404Z,18.45
2022-11-26T20:16:24.604Z,17.55
2022-11-26T20:18:52.892Z,11.05
2022-11-26T20:21:26.327Z,6.93
2022-11-26T20:23:57.793Z,11.30
2022-11-26T20:26:29.939Z,9.43
2022-11-26T20:29:02.460Z,5.50
2022-11-26T20:31:30.670Z,6.53
2022-11-26T20:34:00.715Z,16.77
2022-11-26T20:36:28.678Z,7.68
2022-11-26T20:39:00.312Z,8.00
2022-11-26T20:41:28.716Z,12.90
2022-11-26T20:43:59.508Z,11.77
2022-11-26T20:46:28.422Z,6.22
2022-11-26T20:48:57.012Z,10.23
2022-11-26T20:51:25.307Z,8.07
2022-11-26T20:53:58.912Z,6.43
2022-11-26T20:56:27.639Z,5.88
2022-11-26T20:58:55.684Z,8.45
2022-11-26T21:01:28.649Z,23.92
2022-11-26T21:03:57.393Z,8.43
2022-11-26T21:06:30.318Z,15.45
2022-11-26T21:09:04.593Z,20.27
2022-11-26T21:11:32.700Z,11.45
2022-11-26T21:14:01.664Z,11.73
2022-11-26T21:16:30.428Z,8.00
2022-11-26T21:18:58.806Z,10.13
2022-11-26T21:21:28.609Z,4.55
2022-11-26T21:23:57.530Z,7.30
2022-11-26T21:26:26.880Z,5.28
2022-11-26T21:28:58.030Z,6.13
2022-11-26T21:31:29.210Z,12.40
2022-11-26T21:34:04.480Z,13.15
2022-11-26T21:36:35.291Z,8.05
2022-11-26T21:39:03.810Z,4.15
2022-11-26T21:41:34.413Z,6.10
2022-11-26T21:44:03.683Z,9.10
2022-11-26T21:46:37.934Z,11.68
2022-11-26T21:49:07.714Z,5.03
2022-11-26T21:51:35.799Z,6.93
2022-11-26T21:54:03.818Z,4.90
2022-11-26T21:56:32.366Z,6.43
2022-11-26T21:59:01.463Z,7.47
2022-11-26T22:01:32.541Z,11.85
2022-11-26T22:04:12.767Z,9.00
2022-11-26T22:06:41.631Z,7.78
2022-11-26T22:09:09.930Z,9.15
2022-11-26T22:11:40.495Z,4.30
2022-11-26T22:14:10.555Z,4.50
2022-11-26T22:16:38.615Z,8.60
2022-11-26T22:19:06.897Z,5.85
2022-11-26T22:21:40.387Z,7.10
2022-11-26T22:24:14.438Z,5.28
2022-11-26T22:26:42.980Z,8.73
2022-11-26T22:29:18.114Z,10.70
2022-11-26T22:31:48.105Z,9.38
2022-11-26T22:34:18.182Z,7.20
2022-11-26T22:36:46.746Z,3.95
2022-11-26T22:39:18.418Z,6.97
2022-11-26T22:41:47.924Z,7.45
2022-11-26T22:44:16.718Z,8.38
2022-11-26T22:46:45.072Z,5.65
2022-11-26T22:49:15.867Z,6.78
2022-11-26T22:51:43.878Z,3.25
2022-11-26T22:54:15.439Z,3.13
2022-11-26T22:56:43.519Z,12.40
2022-11-26T22:59:13.540Z,3.83
2022-11-26T23:01:41.929Z,4.88
2022-11-26T23:04:11.046Z,2.90
2022-11-26T23:06:39.780Z,7.82
2022-11-26T23:09:09.525Z,8.00
2022-11-26T23:11:40.514Z,3.75
2022-11-26T23:14:11.765Z,15.00
2022-11-26T23:16:42.764Z,8.98
2022-11-26T23:19:14.593Z,7.50
2022-11-26T23:21:44.590Z,3.90
2022-11-26T23:24:14.493Z,7.28
2022-11-26T23:26:42.974Z,6.20
2022-11-26T23:29:11.837Z,10.18
2022-11-26T23:31:43.537Z,11.25
2022-11-26T23:34:12.857Z,14.43
2022-11-26T23:36:40.751Z,11.85
2022-11-26T23:39:12.216Z,9.38
2022-11-26T23:41:40.224Z,10.13
2022-11-26T23:44:08.155Z,4.50
2022-11-26T23:46:36.274Z,4.82
2022-11-26T23:49:04.624Z,10.50
2022-11-26T23:51:33.271Z,7.45
2022-11-26T23:54:01.191Z,6.82
2022-11-26T23:56:32.695Z,5.15
2022-11-26T23:59:02.724Z,8.07
